Portada
METAR-TAF:

METAR-TAF

Aeropuertos :

Aeropuerto de Badajoz

Badajoz, España

latitud: 38-53N, longitud: 006-49W, altitud: 185 m

Observación

El informe se hizo hace 32 minutos, a las 18:00 UTC
Viento 3 kt del noreste
Temperatura 10°C
Humedad 82%
Presión 1019 hPa
Visibilidad: 8000 m
Escasas nubes a una altura de 4500 ft

METAR: LEBZ 161800Z 05003KT 8000 FEW045 10/07 Q1019

Hora: 19:32 (18:32 UTC)

Pronóstico

El informe se hizo hace 1 hora y 32 minutos, a las 17:00 UTC
Pronóstico válido del 16 a las 18 UTC al 17 a las 18 UTC
Viento 3 kt con dirección variable
Visibilidad 10 km o más
Escasas nubes a una altura de 4000 ft
Temporalmente
del 17 a las 02 UTC al 17 a las 10 UTC
Visibilidad: 3000 m
neblina
Probabilidad 40% :
Temporalmente
del 17 a las 05 UTC al 17 a las 09 UTC
Visibilidad: 0300 m
a una altura de 100 ft
niebla

TAF: LEBZ 161700Z 1618/1718 VRB03KT 9999 FEW040 TX13/1715Z TN02/1707Z TEMPO 1702/1710 3000 BR PROB40 TEMPO 1705/1709 0300 FG VV001

Observaciones y pronósticos meteorológicos de más de 4000 aeropuertos (mensajes METAR y TAF).

Los puntos amarillos y rojos representan las estaciones disponibles.

Ponga el ratón en el punto deseado para ver el nombre de la estación.

Haga clic para ver las observaciones y los pronósticos meteorológicos.

Para cambiar el mapa : haga clic en los botones verdes con una cruz de color negro para hacer un zoom, en el botón verde con un guión para alejar o en las flechas verdes para mapas adyacentes.


METAR-TAF: